createdAt,value
2022-12-25T00:01:24.934Z,21.60
2022-12-25T00:03:52.195Z,21.50
2022-12-25T00:06:19.475Z,22.08
2022-12-25T00:08:46.289Z,22.38
2022-12-25T00:11:15.179Z,22.38
2022-12-25T00:13:42.111Z,21.30
2022-12-25T00:16:19.598Z,22.00
2022-12-25T00:18:46.933Z,23.85
2022-12-25T00:21:14.250Z,22.95
2022-12-25T00:23:41.320Z,22.23
2022-12-25T00:26:10.373Z,20.88
2022-12-25T00:28:37.242Z,23.33
2022-12-25T00:31:08.868Z,22.70
2022-12-25T00:33:39.378Z,22.67
2022-12-25T00:36:06.812Z,22.52
2022-12-25T00:38:34.120Z,23.92
2022-12-25T00:41:07.641Z,24.35
2022-12-25T00:43:34.536Z,24.88
2022-12-25T00:46:02.760Z,23.08
2022-12-25T00:48:29.833Z,23.33
2022-12-25T00:50:57.615Z,22.48
2022-12-25T00:53:24.574Z,24.13
2022-12-25T00:55:57.349Z,24.23
2022-12-25T00:58:24.813Z,23.70
2022-12-25T01:00:51.947Z,24.85
2022-12-25T01:03:18.853Z,24.65
2022-12-25T01:05:57.781Z,24.88
2022-12-25T01:08:24.659Z,24.55
2022-12-25T01:11:04.740Z,24.85
2022-12-25T01:13:31.936Z,25.45
2022-12-25T01:15:58.996Z,26.77
2022-12-25T01:18:25.751Z,26.73
2022-12-25T01:20:52.840Z,25.65
2022-12-25T01:23:19.582Z,25.85
2022-12-25T01:25:46.679Z,26.40
2022-12-25T01:28:13.750Z,25.48
2022-12-25T01:30:40.871Z,25.33
2022-12-25T01:33:07.699Z,24.65
2022-12-25T01:35:34.766Z,25.42
2022-12-25T01:38:01.509Z,26.35
2022-12-25T01:40:28.634Z,23.67
2022-12-25T01:42:55.904Z,25.33
2022-12-25T01:45:38.016Z,24.65
2022-12-25T01:48:17.764Z,23.75
2022-12-25T01:50:47.850Z,23.45
2022-12-25T01:53:14.597Z,25.95
2022-12-25T01:55:42.507Z,23.67
2022-12-25T01:58:09.278Z,22.75
2022-12-25T02:00:36.384Z,23.60
2022-12-25T02:03:03.335Z,24.27
2022-12-25T02:05:32.105Z,22.55
2022-12-25T02:08:01.138Z,21.75
2022-12-25T02:10:28.203Z,21.25
2022-12-25T02:12:54.966Z,21.77
2022-12-25T02:15:22.911Z,22.08
2022-12-25T02:18:07.604Z,22.27
2022-12-25T02:21:12.068Z,20.45
2022-12-25T02:24:07.284Z,20.60
2022-12-25T02:26:42.189Z,20.85
2022-12-25T02:29:23.935Z,20.73
2022-12-25T02:31:59.557Z,19.63
2022-12-25T02:37:05.338Z,19.58
2022-12-25T02:40:00.008Z,19.85
2022-12-25T02:43:00.385Z,19.45
2022-12-25T02:45:55.264Z,20.10
2022-12-25T02:48:42.008Z,18.15
2022-12-25T02:51:29.909Z,17.85
2022-12-25T02:54:16.012Z,18.88
2022-12-25T02:59:46.981Z,18.90
2022-12-25T03:02:33.579Z,17.48
2022-12-25T03:05:20.519Z,17.30
2022-12-25T03:07:47.283Z,16.73
2022-12-25T03:10:32.946Z,16.70
2022-12-25T03:13:14.598Z,16.92
2022-12-25T03:16:00.398Z,16.38
2022-12-25T03:18:27.641Z,16.48
2022-12-25T03:21:13.498Z,15.82
2022-12-25T03:24:00.459Z,16.23
2022-12-25T03:26:46.234Z,15.95
2022-12-25T03:29:35.840Z,16.08
2022-12-25T03:32:29.141Z,15.73
2022-12-25T03:35:25.378Z,14.88
2022-12-25T03:38:35.054Z,15.32
2022-12-25T03:41:35.883Z,14.80
2022-12-25T03:44:35.580Z,14.25
2022-12-25T03:47:28.562Z,14.30
2022-12-25T03:50:20.747Z,14.32
2022-12-25T03:53:06.138Z,13.90
2022-12-25T03:58:43.254Z,13.63
2022-12-25T04:01:28.981Z,14.48
2022-12-25T04:04:14.577Z,14.43
2022-12-25T04:09:45.536Z,13.18
2022-12-25T04:15:16.728Z,11.98
2022-12-25T04:20:47.748Z,13.43
2022-12-25T04:23:33.054Z,13.20
2022-12-25T04:26:18.417Z,12.73
2022-12-25T04:29:03.918Z,13.60
2022-12-25T04:31:49.324Z,12.07
2022-12-25T04:34:34.806Z,11.90
2022-12-25T04:37:01.540Z,12.18
2022-12-25T04:39:28.545Z,13.18
2022-12-25T04:41:55.271Z,12.77
2022-12-25T04:44:22.318Z,13.38
2022-12-25T04:46:49.166Z,13.15
2022-12-25T04:49:16.324Z,12.57
2022-12-25T04:51:43.063Z,11.57
2022-12-25T04:54:10.162Z,11.52
2022-12-25T04:56:43.493Z,12.02
2022-12-25T04:59:12.948Z,11.60
2022-12-25T05:01:39.771Z,10.55
2022-12-25T05:04:06.944Z,11.48
2022-12-25T05:06:33.642Z,10.52
2022-12-25T05:09:00.655Z,12.32
2022-12-25T05:11:27.688Z,13.05
2022-12-25T05:13:54.787Z,14.75
2022-12-25T05:16:21.776Z,17.88
2022-12-25T05:18:49.537Z,19.33
2022-12-25T05:21:16.667Z,19.50
2022-12-25T05:23:48.685Z,21.08
2022-12-25T05:26:16.993Z,19.77
2022-12-25T05:28:44.196Z,21.85
2022-12-25T05:31:11.225Z,23.02
2022-12-25T05:33:38.342Z,22.25
2022-12-25T05:36:06.113Z,21.65
2022-12-25T05:38:33.383Z,21.67
2022-12-25T05:41:00.164Z,20.95
2022-12-25T05:43:27.808Z,20.77
2022-12-25T05:45:54.911Z,21.98
2022-12-25T05:48:22.004Z,21.13
2022-12-25T05:50:48.738Z,20.75
2022-12-25T05:53:15.964Z,21.08
2022-12-25T05:55:43.682Z,20.65
2022-12-25T05:58:10.984Z,20.48
2022-12-25T06:00:37.758Z,19.92
2022-12-25T06:03:04.933Z,20.42
2022-12-25T06:05:32.144Z,19.77
2022-12-25T06:07:59.189Z,20.23
2022-12-25T06:10:25.928Z,19.95
2022-12-25T06:12:52.986Z,19.95
2022-12-25T06:15:19.742Z,19.73
2022-12-25T06:17:46.830Z,20.05
2022-12-25T06:20:13.533Z,19.50
2022-12-25T06:22:40.585Z,19.20
2022-12-25T06:25:08.572Z,19.45
2022-12-25T06:27:35.598Z,19.05
2022-12-25T06:30:02.641Z,18.48
2022-12-25T06:32:29.722Z,19.42
2022-12-25T06:34:56.465Z,18.90
2022-12-25T06:37:23.481Z,20.35
2022-12-25T06:39:50.225Z,19.30
2022-12-25T06:42:17.234Z,19.23
2022-12-25T06:44:44.747Z,19.75
2022-12-25T06:47:11.893Z,19.85
2022-12-25T06:49:38.617Z,17.65
2022-12-25T06:52:05.713Z,17.73
2022-12-25T06:54:32.439Z,19.33
2022-12-25T06:56:59.516Z,19.67
2022-12-25T06:59:26.236Z,19.67
2022-12-25T07:01:58.546Z,19.05
2022-12-25T07:04:40.621Z,19.20
2022-12-25T07:07:09.191Z,18.65
2022-12-25T07:09:36.369Z,18.85
2022-12-25T07:12:20.452Z,19.30
2022-12-25T07:14:50.315Z,19.05
2022-12-25T07:17:17.624Z,19.73
2022-12-25T07:19:45.421Z,18.40
2022-12-25T07:22:13.397Z,17.02
2022-12-25T07:24:40.162Z,19.13
2022-12-25T07:27:08.346Z,18.73
2022-12-25T07:29:35.247Z,19.10
2022-12-25T07:32:02.370Z,19.65
2022-12-25T07:34:29.198Z,20.05
2022-12-25T07:36:56.288Z,20.02
2022-12-25T07:39:23.898Z,20.23
2022-12-25T07:41:51.356Z,19.95
2022-12-25T07:44:18.263Z,19.83
2022-12-25T07:46:45.487Z,21.13
2022-12-25T07:49:12.376Z,22.75
2022-12-25T07:51:39.535Z,22.08
2022-12-25T07:54:06.336Z,20.35
2022-12-25T07:56:33.379Z,20.95
2022-12-25T07:59:00.199Z,21.55
2022-12-25T08:01:27.942Z,23.95
2022-12-25T08:03:55.643Z,27.40
2022-12-25T08:06:29.532Z,28.83
2022-12-25T08:09:07.325Z,30.45
2022-12-25T08:11:34.495Z,29.95
2022-12-25T08:14:01.376Z,31.45
2022-12-25T08:16:28.521Z,29.67
2022-12-25T08:18:55.272Z,33.25
2022-12-25T08:21:22.468Z,35.05
2022-12-25T08:23:49.230Z,36.00
2022-12-25T08:26:20.679Z,36.45
2022-12-25T08:28:47.791Z,39.47
2022-12-25T08:31:19.995Z,40.65
2022-12-25T08:33:47.434Z,39.55
2022-12-25T08:36:15.754Z,40.20
2022-12-25T08:38:42.574Z,41.60
2022-12-25T08:41:09.953Z,41.17
2022-12-25T08:43:36.682Z,41.53
2022-12-25T08:46:03.919Z,41.67
2022-12-25T08:48:30.852Z,40.67
2022-12-25T08:50:58.095Z,42.35
2022-12-25T08:53:24.860Z,41.13
2022-12-25T08:56:01.669Z,40.00
2022-12-25T08:58:28.451Z,39.15
2022-12-25T09:00:56.066Z,38.70
2022-12-25T09:03:23.576Z,38.55
2022-12-25T09:05:51.497Z,37.42
2022-12-25T09:08:18.711Z,37.83
2022-12-25T09:10:45.781Z,37.33
2022-12-25T09:13:12.909Z,37.72
2022-12-25T09:15:40.390Z,37.95
2022-12-25T09:18:07.186Z,39.28
2022-12-25T09:20:34.281Z,37.55
2022-12-25T09:23:00.993Z,36.95
2022-12-25T09:25:28.102Z,34.42
2022-12-25T09:27:56.351Z,35.80
2022-12-25T09:30:23.441Z,35.38
2022-12-25T09:32:50.289Z,34.17
2022-12-25T09:35:20.157Z,32.17
2022-12-25T09:37:46.920Z,32.70
2022-12-25T09:40:17.725Z,33.97
2022-12-25T09:42:44.573Z,32.58
2022-12-25T09:45:14.796Z,31.63
2022-12-25T09:47:42.515Z,31.30
2022-12-25T09:50:19.601Z,32.50
2022-12-25T09:52:47.457Z,29.00
2022-12-25T09:55:21.014Z,30.70
2022-12-25T09:57:50.674Z,29.70
2022-12-25T10:00:20.268Z,28.38
2022-12-25T10:02:50.359Z,30.15
2022-12-25T10:05:23.367Z,28.38
2022-12-25T10:08:14.024Z,28.30
2022-12-25T10:10:51.372Z,29.23
2022-12-25T10:13:27.333Z,27.58
2022-12-25T10:16:00.535Z,26.45
2022-12-25T10:18:45.639Z,26.50
2022-12-25T10:21:14.432Z,26.58
2022-12-25T10:24:11.073Z,26.02
2022-12-25T10:26:38.145Z,28.73
2022-12-25T10:29:15.959Z,26.95
2022-12-25T10:31:47.197Z,27.15
2022-12-25T10:34:14.088Z,27.48
2022-12-25T10:36:42.099Z,26.00
2022-12-25T10:39:15.218Z,25.08
2022-12-25T10:42:10.249Z,23.42
2022-12-25T10:44:37.117Z,23.67
2022-12-25T10:47:04.715Z,23.88
2022-12-25T10:49:36.923Z,24.33
2022-12-25T10:52:04.371Z,22.20
2022-12-25T10:54:35.737Z,22.23
2022-12-25T10:57:08.976Z,22.00
2022-12-25T10:59:42.377Z,21.02
2022-12-25T11:02:28.767Z,21.42
2022-12-25T11:05:07.217Z,20.13
2022-12-25T11:07:43.091Z,20.63
2022-12-25T11:10:31.212Z,19.90
2022-12-25T11:12:59.662Z,20.00
2022-12-25T11:15:29.490Z,18.10
2022-12-25T11:17:56.568Z,19.52
2022-12-25T11:20:23.346Z,17.95
2022-12-25T11:22:50.417Z,18.25
2022-12-25T11:25:25.768Z,17.10
2022-12-25T11:28:03.103Z,16.80
2022-12-25T11:30:30.547Z,18.88
2022-12-25T11:32:59.447Z,16.98
2022-12-25T11:35:29.728Z,17.88
2022-12-25T11:37:56.961Z,17.83
2022-12-25T11:40:29.705Z,16.48
2022-12-25T11:43:14.577Z,17.95
2022-12-25T11:45:46.981Z,17.00
2022-12-25T11:48:28.997Z,17.77
2022-12-25T11:51:02.550Z,18.00
2022-12-25T11:53:30.848Z,16.52
2022-12-25T11:56:08.892Z,17.20
2022-12-25T11:58:44.784Z,17.38
2022-12-25T12:01:16.362Z,16.65
2022-12-25T12:03:43.462Z,15.55
2022-12-25T12:06:43.609Z,17.15
2022-12-25T12:09:35.690Z,16.25
2022-12-25T12:12:23.025Z,14.38
2022-12-25T12:14:53.547Z,16.85
2022-12-25T12:17:20.335Z,16.13
2022-12-25T12:19:47.425Z,15.05
2022-12-25T12:22:23.064Z,16.20
2022-12-25T12:24:58.441Z,15.65
2022-12-25T12:27:59.826Z,14.55
2022-12-25T12:30:32.022Z,13.95
2022-12-25T12:33:01.255Z,14.50
2022-12-25T12:35:32.793Z,16.42
2022-12-25T12:38:03.723Z,14.75
2022-12-25T12:40:58.155Z,16.00
2022-12-25T12:43:35.392Z,17.13
2022-12-25T12:46:07.343Z,18.40
2022-12-25T12:48:39.298Z,16.50
2022-12-25T12:51:08.459Z,19.08
2022-12-25T12:53:35.268Z,17.48
2022-12-25T12:56:17.110Z,17.73
2022-12-25T12:58:50.128Z,18.17
2022-12-25T13:01:23.530Z,19.10
2022-12-25T13:04:05.285Z,21.30
2022-12-25T13:07:03.170Z,27.30
2022-12-25T13:09:46.643Z,25.58
2022-12-25T13:12:15.282Z,26.98
2022-12-25T13:14:46.120Z,26.23
2022-12-25T13:17:14.745Z,26.13
2022-12-25T13:19:42.424Z,26.30
2022-12-25T13:22:21.432Z,23.88
2022-12-25T13:24:55.017Z,23.27
2022-12-25T13:27:24.187Z,21.55
2022-12-25T13:29:50.991Z,25.30
2022-12-25T13:32:22.458Z,27.75
2022-12-25T13:34:49.224Z,26.42
2022-12-25T13:37:18.114Z,29.63
2022-12-25T13:39:58.064Z,29.48
2022-12-25T13:42:44.739Z,26.02
2022-12-25T13:45:14.528Z,28.25
2022-12-25T13:47:49.910Z,24.50
2022-12-25T13:50:33.361Z,23.30
2022-12-25T13:53:14.010Z,24.35
2022-12-25T13:55:40.784Z,26.00
2022-12-25T13:58:07.926Z,25.50
2022-12-25T14:00:47.043Z,25.60
2022-12-25T14:03:19.711Z,25.10
2022-12-25T14:05:48.438Z,24.80
2022-12-25T14:08:19.691Z,23.05
2022-12-25T14:10:48.776Z,23.27
2022-12-25T14:13:15.840Z,24.70
2022-12-25T14:15:42.656Z,24.27
2022-12-25T14:18:14.879Z,25.60
2022-12-25T14:20:42.466Z,35.33
2022-12-25T14:23:14.381Z,55.65
2022-12-25T14:25:45.500Z,66.20
2022-12-25T14:28:32.171Z,66.78
2022-12-25T14:31:00.450Z,75.30
2022-12-25T14:33:28.231Z,83.13
2022-12-25T14:35:55.000Z,87.85
2022-12-25T14:38:39.619Z,98.30
2022-12-25T14:41:18.678Z,98.20
2022-12-25T14:43:52.918Z,85.43
2022-12-25T14:47:22.646Z,105.43
2022-12-25T14:50:41.998Z,102.05
2022-12-25T14:53:18.526Z,107.70
2022-12-25T14:55:50.453Z,105.38
2022-12-25T14:58:22.889Z,111.22
2022-12-25T15:01:02.522Z,114.32
2022-12-25T15:03:31.268Z,118.57
2022-12-25T15:06:01.944Z,124.00
2022-12-25T15:08:29.839Z,126.85
2022-12-25T15:11:00.979Z,132.40
2022-12-25T15:13:29.192Z,126.57
2022-12-25T15:16:41.619Z,122.88
2022-12-25T15:19:08.908Z,130.63
2022-12-25T15:21:36.577Z,121.50
2022-12-25T15:24:04.056Z,122.00
2022-12-25T15:26:31.734Z,123.03
2022-12-25T15:28:58.744Z,121.20
2022-12-25T15:31:30.623Z,122.97
2022-12-25T15:33:58.740Z,125.30
2022-12-25T15:36:26.607Z,132.65
2022-12-25T15:38:53.869Z,131.50
2022-12-25T15:41:46.703Z,131.63
2022-12-25T15:44:14.299Z,136.90
2022-12-25T15:46:42.104Z,135.82
2022-12-25T15:49:10.646Z,141.27
2022-12-25T15:51:38.190Z,138.98
2022-12-25T15:54:18.469Z,136.57
2022-12-25T15:56:55.457Z,129.20
2022-12-25T15:59:22.678Z,132.90
2022-12-25T16:01:57.688Z,127.60
2022-12-25T16:04:25.333Z,131.32
2022-12-25T16:06:55.035Z,123.00
2022-12-25T16:09:23.307Z,120.07
2022-12-25T16:11:50.578Z,119.35
2022-12-25T16:14:18.834Z,116.78
2022-12-25T16:16:45.880Z,112.05
2022-12-25T16:19:12.606Z,110.18
2022-12-25T16:21:43.867Z,109.72
2022-12-25T16:24:10.630Z,112.28
2022-12-25T16:26:37.803Z,107.80
2022-12-25T16:29:07.286Z,103.95
2022-12-25T16:31:35.867Z,103.28
2022-12-25T16:34:03.164Z,105.28
2022-12-25T16:36:31.399Z,102.18
2022-12-25T16:38:58.310Z,99.80
2022-12-25T16:41:25.474Z,99.80
2022-12-25T16:43:52.266Z,94.20
2022-12-25T16:46:29.168Z,95.47
2022-12-25T16:49:02.904Z,95.20
2022-12-25T16:51:30.843Z,93.82
2022-12-25T16:53:58.603Z,92.53
2022-12-25T16:56:28.418Z,93.28
2022-12-25T16:59:13.248Z,90.53
2022-12-25T17:01:43.438Z,87.30
2022-12-25T17:04:10.449Z,87.68
2022-12-25T17:06:37.668Z,86.40
2022-12-25T17:09:04.446Z,84.13
2022-12-25T17:11:31.971Z,85.25
2022-12-25T17:14:01.980Z,83.80
2022-12-25T17:16:31.162Z,80.88
2022-12-25T17:19:01.446Z,84.63
2022-12-25T17:21:28.713Z,78.70
2022-12-25T17:24:01.723Z,77.95
2022-12-25T17:26:31.684Z,75.20
2022-12-25T17:28:58.568Z,75.03
2022-12-25T17:31:25.739Z,73.28
2022-12-25T17:33:52.507Z,71.38
2022-12-25T17:36:20.394Z,73.00
2022-12-25T17:38:47.685Z,69.93
2022-12-25T17:41:16.059Z,66.78
2022-12-25T17:43:44.327Z,68.15
2022-12-25T17:46:12.456Z,64.35
2022-12-25T17:48:39.277Z,64.85
2022-12-25T17:51:08.613Z,63.85
2022-12-25T17:53:36.388Z,65.60
2022-12-25T17:56:03.665Z,62.63
2022-12-25T17:58:30.501Z,62.63
2022-12-25T18:00:57.653Z,64.97
2022-12-25T18:03:24.641Z,62.80
2022-12-25T18:05:51.761Z,60.63
2022-12-25T18:08:18.564Z,60.15
2022-12-25T18:10:45.770Z,59.40
2022-12-25T18:13:12.603Z,58.72
2022-12-25T18:15:40.020Z,58.42
2022-12-25T18:18:07.794Z,57.10
2022-12-25T18:20:39.919Z,55.38
2022-12-25T18:23:08.305Z,55.78
2022-12-25T18:25:39.911Z,54.45
2022-12-25T18:28:06.622Z,53.97
2022-12-25T18:30:33.769Z,55.30
2022-12-25T18:33:00.523Z,54.20
2022-12-25T18:35:29.924Z,52.88
2022-12-25T18:37:56.707Z,55.10
2022-12-25T18:40:23.970Z,51.80
2022-12-25T18:42:53.745Z,52.45
2022-12-25T18:45:23.503Z,50.40
2022-12-25T18:47:50.211Z,48.80
2022-12-25T18:50:17.325Z,50.28
2022-12-25T18:52:50.326Z,48.15
2022-12-25T18:55:18.514Z,47.28
2022-12-25T18:57:45.577Z,48.53
2022-12-25T19:00:12.857Z,48.30
2022-12-25T19:02:39.888Z,46.80
2022-12-25T19:05:07.673Z,47.15
2022-12-25T19:07:34.536Z,49.90
2022-12-25T19:10:01.634Z,48.15
2022-12-25T19:12:28.481Z,49.58
2022-12-25T19:14:55.906Z,47.10
2022-12-25T19:17:29.608Z,48.40
2022-12-25T19:19:58.563Z,47.67
2022-12-25T19:22:26.260Z,47.28
2022-12-25T19:24:53.339Z,45.83
2022-12-25T19:27:20.055Z,48.40
2022-12-25T19:29:47.076Z,46.78
2022-12-25T19:32:13.849Z,48.85
2022-12-25T19:34:40.888Z,47.95
2022-12-25T19:37:07.743Z,44.72
2022-12-25T19:39:34.796Z,46.92
2022-12-25T19:42:01.530Z,47.25
2022-12-25T19:44:28.621Z,45.05
2022-12-25T19:46:55.915Z,46.03
2022-12-25T19:49:23.201Z,49.47
2022-12-25T19:51:49.969Z,45.47
2022-12-25T19:54:18.845Z,47.42
2022-12-25T19:56:45.895Z,44.92
2022-12-25T19:59:14.401Z,45.63
2022-12-25T20:01:41.346Z,44.83
2022-12-25T20:04:09.709Z,42.35
2022-12-25T20:06:39.181Z,43.50
2022-12-25T20:09:07.885Z,44.25
2022-12-25T20:11:35.079Z,45.90
2022-12-25T20:14:02.325Z,44.42
2022-12-25T20:16:29.235Z,47.63
2022-12-25T20:18:57.208Z,47.08
2022-12-25T20:21:24.359Z,48.03
2022-12-25T20:23:52.084Z,46.70
2022-12-25T20:26:20.567Z,44.45
2022-12-25T20:28:47.534Z,45.85
2022-12-25T20:31:15.887Z,43.08
2022-12-25T20:33:42.830Z,45.05
2022-12-25T20:36:10.254Z,46.45
2022-12-25T20:38:37.133Z,43.55
2022-12-25T20:43:55.893Z,44.55
2022-12-25T20:46:23.588Z,43.33
2022-12-25T20:48:50.461Z,45.17
2022-12-25T20:51:19.181Z,44.55
2022-12-25T20:53:46.306Z,42.88
2022-12-25T20:56:14.533Z,42.13
2022-12-25T20:58:41.513Z,43.08
2022-12-25T21:01:11.525Z,44.50
2022-12-25T21:03:38.620Z,43.03
2022-12-25T21:06:06.325Z,43.00
2022-12-25T21:08:33.130Z,43.03
2022-12-25T21:11:04.092Z,42.92
2022-12-25T21:13:35.997Z,42.38
2022-12-25T21:16:08.181Z,42.45
2022-12-25T21:18:35.040Z,45.33
2022-12-25T21:21:05.601Z,46.42
2022-12-25T21:23:32.705Z,46.30
2022-12-25T21:25:59.815Z,46.58
2022-12-25T21:28:27.199Z,47.22
2022-12-25T21:30:54.353Z,46.05
2022-12-25T21:33:39.833Z,48.30
2022-12-25T21:36:11.309Z,48.70
2022-12-25T21:38:38.436Z,48.75
2022-12-25T21:41:09.710Z,48.20
2022-12-25T21:43:36.975Z,49.78
2022-12-25T21:46:05.535Z,50.72
2022-12-25T21:48:32.688Z,46.65
2022-12-25T21:51:25.656Z,48.90
2022-12-25T21:53:52.520Z,50.05
2022-12-25T21:56:19.635Z,51.25
2022-12-25T21:58:47.261Z,52.72
2022-12-25T22:01:16.874Z,48.53
2022-12-25T22:03:44.217Z,52.40
2022-12-25T22:06:30.701Z,51.92
2022-12-25T22:08:57.455Z,49.88
2022-12-25T22:11:43.669Z,52.90
2022-12-25T22:14:51.297Z,51.28
2022-12-25T22:17:40.773Z,54.22
2022-12-25T22:20:09.197Z,57.70
2022-12-25T22:22:36.265Z,56.30
2022-12-25T22:25:03.788Z,59.53
2022-12-25T22:27:36.328Z,60.95
2022-12-25T22:30:03.599Z,58.28
2022-12-25T22:32:30.722Z,57.00
2022-12-25T22:34:57.560Z,58.30
2022-12-25T22:37:24.648Z,58.40
2022-12-25T22:39:51.407Z,57.17
2022-12-25T22:42:18.657Z,58.78
2022-12-25T22:44:47.446Z,56.83
2022-12-25T22:47:15.390Z,59.17
2022-12-25T22:49:42.163Z,57.38
2022-12-25T22:52:09.906Z,56.92
2022-12-25T22:54:36.968Z,57.20
2022-12-25T22:57:04.194Z,59.45
2022-12-25T22:59:31.110Z,60.42
2022-12-25T23:01:58.414Z,61.72
2022-12-25T23:04:25.213Z,60.47
2022-12-25T23:06:52.259Z,62.97
2022-12-25T23:09:24.528Z,63.80
2022-12-25T23:11:52.011Z,65.82
2022-12-25T23:14:37.493Z,63.92
2022-12-25T23:19:50.041Z,66.25
2022-12-25T23:25:20.982Z,63.03
2022-12-25T23:30:15.961Z,64.80
2022-12-25T23:32:43.499Z,66.95
2022-12-25T23:35:10.821Z,65.40
2022-12-25T23:37:37.882Z,67.40
2022-12-25T23:40:05.339Z,64.35
2022-12-25T23:42:32.503Z,63.58
2022-12-25T23:44:59.279Z,64.95
2022-12-25T23:47:26.335Z,64.22
2022-12-25T23:49:53.116Z,63.28
2022-12-25T23:52:20.172Z,62.10
2022-12-25T23:54:46.893Z,63.97
2022-12-25T23:57:13.969Z,60.22
2022-12-25T23:59:40.770Z,58.67
